Time;durP1;ratioP1;P1;durP2;ratioP2;P2;SDS_P1;SDS_P2;PMS_P1;PMS_P2;Temp;Humidity;BMP_temperature;BMP_pressure;BME280_temperature;BME280_humidity;BME280_pressure;Samples;Min_cycle;Max_cycle;Signal;HPM_P1;HPM_P2
2023/02/21 02:16:14;;;;;;;8.50;7.40;;;;;;;5.82;75.58;96904.55;110097;1240;69675;-67
2023/02/21 02:18:59;;;;;;;8.50;7.10;;;;;;;5.86;75.14;96893.90;110111;1240;69262;-68
2023/02/21 02:21:55;;;;;;;9.10;7.20;;;;;;;5.85;75.23;96888.42;110189;1242;59750;-68
2023/02/21 02:24:58;;;;;;;9.70;8.20;;;;;;;5.84;75.41;96890.60;110195;1242;59697;-67
2023/02/21 02:28:02;;;;;;;9.10;7.00;;;;;;;5.83;75.46;96887.55;109806;1245;71439;-67
2023/02/21 02:30:58;;;;;;;9.90;7.10;;;;;;;5.81;75.60;96884.56;110040;1242;69239;-68
2023/02/21 02:33:57;;;;;;;9.70;7.10;;;;;;;5.82;75.52;96880.69;110243;1240;70226;-68
2023/02/21 02:36:41;;;;;;;8.90;6.70;;;;;;;5.86;75.37;96877.52;110237;1242;59687;-68
2023/02/21 02:39:42;;;;;;;7.70;6.20;;;;;;;5.89;75.29;96881.66;110274;1241;59728;-68
2023/02/21 02:42:34;;;;;;;8.50;6.90;;;;;;;5.92;75.10;96883.73;110144;1244;70662;-67
2023/02/21 02:45:15;;;;;;;7.90;6.20;;;;;;;5.92;75.34;96879.95;110123;1242;69416;-67
2023/02/21 02:47:50;;;;;;;7.90;6.90;;;;;;;5.95;74.96;96873.02;110112;1245;70576;-67
2023/02/21 02:50:25;;;;;;;7.30;5.90;;;;;;;5.97;74.90;96873.55;110233;1240;59670;-68
2023/02/21 02:53:02;;;;;;;9.20;5.90;;;;;;;5.96;75.12;96877.27;110103;1241;59811;-68
2023/02/21 02:55:42;;;;;;;8.40;6.40;;;;;;;5.96;74.96;96870.66;110136;1240;70196;-68
2023/02/21 02:58:14;;;;;;;8.00;6.50;;;;;;;5.96;75.03;96867.73;110098;1245;69278;-67
2023/02/21 03:01:10;;;;;;;7.80;6.50;;;;;;;5.97;75.01;96868.91;110145;1244;68722;-67
2023/02/21 03:04:02;;;;;;;8.20;6.50;;;;;;;5.99;74.68;96865.46;109872;1246;59702;-68
2023/02/21 03:06:36;;;;;;;9.00;6.60;;;;;;;6.00;74.70;96864.89;110100;1241;59734;-68
2023/02/21 03:09:37;;;;;;;8.10;6.10;;;;;;;6.02;74.45;96865.09;110111;1244;71504;-68
2023/02/21 03:12:13;;;;;;;7.60;6.50;;;;;;;6.04;74.48;96859.12;110254;1240;69921;-69
2023/02/21 03:14:55;;;;;;;7.70;6.10;;;;;;;6.02;74.51;96864.95;110245;1242;68517;-69
2023/02/21 03:17:31;;;;;;;8.80;6.90;;;;;;;6.01;74.32;96861.35;110236;1244;59696;-68
2023/02/21 03:20:04;;;;;;;7.40;6.20;;;;;;;6.04;74.43;96862.73;110067;1240;59695;-67
2023/02/21 03:22:35;;;;;;;7.50;6.00;;;;;;;6.03;74.32;96866.77;110261;1242;70845;-69
2023/02/21 03:25:08;;;;;;;6.40;5.20;;;;;;;6.02;74.46;96859.91;110147;1245;68765;-69
2023/02/21 03:27:40;;;;;;;8.20;6.00;;;;;;;6.01;74.48;96855.50;110115;1241;68549;-68
2023/02/21 03:30:20;;;;;;;8.60;6.20;;;;;;;6.00;74.51;96858.34;110180;1241;59730;-68
2023/02/21 03:32:53;;;;;;;6.90;5.70;;;;;;;5.99;74.46;96852.55;110139;1243;60065;-69
2023/02/21 03:35:29;;;;;;;6.70;5.60;;;;;;;5.94;74.81;96861.98;110129;1241;71267;-69
2023/02/21 03:38:00;;;;;;;7.70;5.70;;;;;;;5.95;74.69;96860.89;110208;1240;68884;-69
2023/02/21 03:40:33;;;;;;;6.60;5.50;;;;;;;5.95;74.69;96858.48;110104;1245;69099;-69
2023/02/21 03:43:06;;;;;;;8.10;6.30;;;;;;;5.96;74.67;96862.75;110099;1243;59678;-68
2023/02/21 03:45:49;;;;;;;9.20;6.30;;;;;;;5.96;74.68;96859.29;110125;1244;59696;-68
2023/02/21 03:48:20;;;;;;;9.90;6.50;;;;;;;5.95;74.87;96857.97;110088;1241;71295;-67
2023/02/21 03:51:04;;;;;;;7.90;5.30;;;;;;;5.92;74.94;96858.98;110150;1243;68520;-68
2023/02/21 03:53:37;;;;;;;10.60;6.40;;;;;;;5.89;75.03;96858.50;110146;1244;69229;-68
2023/02/21 03:56:08;;;;;;;8.40;5.80;;;;;;;5.90;74.73;96854.42;110142;1242;59792;-68
2023/02/21 03:58:50;;;;;;;7.60;6.20;;;;;;;5.88;75.04;96852.33;110141;1243;59701;-67
2023/02/21 04:01:20;;;;;;;9.60;6.60;;;;;;;5.86;75.01;96851.35;110081;1241;72035;-67
2023/02/21 04:03:51;;;;;;;;;;;;;;;5.85;75.01;96849.00;110143;1243;69726;-68
2023/02/21 04:06:21;;;;;;;9.20;6.70;;;;;;;5.84;75.12;96847.38;110108;1245;68633;-68
2023/02/21 04:08:52;;;;;;;8.60;7.00;;;;;;;5.79;75.54;96847.30;110060;1245;59647;-68
2023/02/21 04:11:23;;;;;;;9.20;6.90;;;;;;;5.73;76.11;96843.09;110070;1241;59707;-68
2023/02/21 04:13:54;;;;;;;11.20;7.40;;;;;;;5.67;76.48;96841.17;110054;1241;71442;-68
2023/02/21 04:16:25;;;;;;;8.90;6.70;;;;;;;5.63;76.57;96842.43;110091;1242;68428;-67
2023/02/21 04:18:58;;;;;;;11.40;7.30;;;;;;;5.60;76.70;96829.32;110080;1244;69533;-67
2023/02/21 04:21:28;;;;;;;10.10;6.80;;;;;;;5.57;76.81;96829.84;110090;1244;59778;-67
2023/02/21 04:24:01;;;;;;;9.40;7.40;;;;;;;5.59;76.44;96831.77;110034;1244;59675;-68
2023/02/21 04:26:33;;;;;;;8.90;6.70;;;;;;;5.59;76.53;96825.08;110129;1241;71379;-66
2023/02/21 04:29:05;;;;;;;9.20;6.50;;;;;;;5.60;76.21;96826.39;110072;1243;69138;-69
2023/02/21 04:31:34;;;;;;;10.90;7.40;;;;;;;5.62;76.33;96826.56;110036;1242;68564;-69
2023/02/21 04:34:10;;;;;;;8.20;6.60;;;;;;;5.59;76.63;96823.98;110130;1241;59667;-69
2023/02/21 04:36:44;;;;;;;13.60;7.30;;;;;;;5.60;76.23;96824.98;110151;1244;59652;-69
2023/02/21 04:39:13;;;;;;;;;;;;;;;5.55;76.45;96821.17;110140;1245;72460;-68
2023/02/21 04:41:43;;;;;;;9.20;7.00;;;;;;;5.54;76.31;96820.20;110125;1245;69295;-68
2023/02/21 04:44:13;;;;;;;;;;;;;;;5.52;76.50;96818.60;110118;1245;68524;-68
2023/02/21 04:46:42;;;;;;;9.20;6.80;;;;;;;5.50;76.05;96818.37;110095;1241;59702;-68
2023/02/21 04:49:12;;;;;;;;;;;;;;;5.51;76.02;96824.35;110138;1241;59675;-68
2023/02/21 04:51:42;;;;;;;10.50;7.50;;;;;;;5.51;75.91;96822.79;110157;1243;71374;-67
2023/02/21 04:54:13;;;;;;;;;;;;;;;5.51;75.85;96822.98;110184;1243;69879;-68
2023/02/21 04:56:42;;;;;;;10.50;6.30;;;;;;;5.50;75.81;96825.97;110158;1241;69352;-68
2023/02/21 04:59:11;;;;;;;9.60;6.90;;;;;;;5.46;76.02;96823.95;110205;1244;59779;-68
2023/02/21 05:01:40;;;;;;;8.00;6.30;;;;;;;5.45;76.27;96819.21;110128;1244;59707;-68
2023/02/21 05:04:11;;;;;;;11.50;7.10;;;;;;;5.39;76.39;96815.91;110147;1245;71429;-68
2023/02/21 05:06:40;;;;;;;8.50;7.00;;;;;;;5.38;76.33;96812.91;110142;1246;68467;-68
2023/02/21 05:09:10;;;;;;;11.50;7.90;;;;;;;5.34;76.17;96808.13;110135;1245;69087;-68
2023/02/21 05:11:40;;;;;;;9.30;7.20;;;;;;;5.30;76.26;96809.59;110111;1245;59697;-68
2023/02/21 05:14:10;;;;;;;12.10;9.30;;;;;;;5.30;76.09;96807.84;110174;1241;59719;-68
2023/02/21 05:16:39;;;;;;;11.00;7.20;;;;;;;5.27;76.45;96818.73;110083;1245;71258;-68
2023/02/21 05:19:10;;;;;;;11.20;7.80;;;;;;;5.23;76.36;96809.98;110160;1243;68497;-68
2023/02/21 05:21:39;;;;;;;10.10;6.90;;;;;;;5.18;76.50;96812.70;110091;1241;69192;-68
2023/02/21 05:24:09;;;;;;;10.30;6.70;;;;;;;5.16;76.44;96806.48;110137;1241;59752;-68
2023/02/21 05:26:39;;;;;;;12.00;8.60;;;;;;;5.11;76.61;96810.38;110118;1243;60139;-68
2023/02/21 05:29:08;;;;;;;9.20;7.20;;;;;;;5.03;77.01;96809.80;110151;1245;71390;-68
2023/02/21 05:31:38;;;;;;;9.90;7.20;;;;;;;4.94;77.35;96812.27;110128;1243;69080;-68
2023/02/21 05:34:07;;;;;;;9.40;7.00;;;;;;;4.87;77.67;96812.86;110126;1245;68669;-68
2023/02/21 05:36:37;;;;;;;9.10;7.20;;;;;;;4.79;78.16;96819.04;110130;1243;59735;-68
2023/02/21 05:39:09;;;;;;;8.90;6.50;;;;;;;4.71;78.54;96817.95;110124;1241;59698;-68
2023/02/21 05:41:39;;;;;;;10.20;7.50;;;;;;;4.65;78.76;96824.84;110127;1242;69902;-67
2023/02/21 05:44:07;;;;;;;10.90;7.80;;;;;;;4.65;78.71;96827.30;110169;1242;70059;-67
2023/02/21 05:46:36;;;;;;;10.60;7.20;;;;;;;4.61;79.02;96828.39;110197;1241;68608;-67
2023/02/21 05:49:06;;;;;;;10.30;7.20;;;;;;;4.58;79.09;96834.58;110180;1243;59682;-68
2023/02/21 05:51:40;;;;;;;11.30;8.20;;;;;;;4.54;79.27;96834.93;110208;1242;59691;-67
2023/02/21 05:54:17;;;;;;;9.70;7.90;;;;;;;4.50;79.48;96833.63;110257;1242;71390;-67
2023/02/21 05:56:49;;;;;;;9.90;6.90;;;;;;;4.50;79.19;96833.98;110204;1242;69222;-68
2023/02/21 05:59:20;;;;;;;11.40;7.80;;;;;;;4.52;79.23;96835.57;110192;1242;69887;-68
2023/02/21 06:01:49;;;;;;;9.20;7.60;;;;;;;4.54;79.22;96837.92;110085;1245;59754;-67
2023/02/21 06:04:18;;;;;;;10.40;7.40;;;;;;;4.58;79.07;96841.83;110213;1242;59670;-67
2023/02/21 06:06:48;;;;;;;11.70;7.90;;;;;;;4.61;79.17;96846.13;110215;1241;72308;-67
2023/02/21 06:09:18;;;;;;;11.20;7.90;;;;;;;4.70;78.77;96853.08;110291;1241;69228;-69
2023/02/21 06:11:47;;;;;;;12.80;8.00;;;;;;;4.78;78.54;96848.59;110367;1242;69276;-67
2023/02/21 06:14:19;;;;;;;11.60;7.50;;;;;;;4.88;78.01;96845.23;111230;1244;59680;-68
2023/02/21 06:16:48;;;;;;;11.70;8.40;;;;;;;4.97;77.82;96844.18;111028;1242;59596;-67
2023/02/21 06:19:18;;;;;;;11.10;9.10;;;;;;;5.01;77.56;96843.80;110306;1242;70518;-68
2023/02/21 06:21:47;;;;;;;11.00;9.30;;;;;;;5.05;77.36;96838.68;110239;1240;69249;-67
2023/02/21 06:24:16;;;;;;;9.10;7.50;;;;;;;5.09;77.34;96844.52;110188;1240;67383;-69
2023/02/21 06:26:45;;;;;;;12.20;9.00;;;;;;;5.14;77.15;96834.05;110195;1242;59750;-67
2023/02/21 06:29:14;;;;;;;12.60;9.00;;;;;;;5.25;76.92;96834.79;110289;1242;59681;-67
2023/02/21 06:31:43;;;;;;;12.30;8.50;;;;;;;5.27;76.58;96835.83;110297;1242;72206;-67
2023/02/21 06:34:12;;;;;;;12.20;8.30;;;;;;;5.33;76.51;96836.48;110264;1242;68143;-67
2023/02/21 06:36:41;;;;;;;10.80;9.30;;;;;;;5.44;76.13;96837.05;110175;1240;70207;-67
2023/02/21 06:39:11;;;;;;;10.20;8.40;;;;;;;5.69;75.34;96840.02;110188;1242;59696;-67
2023/02/21 06:41:40;;;;;;;12.20;8.90;;;;;;;5.97;73.56;96839.14;110175;1242;59660;-66
2023/02/21 06:44:10;;;;;;;11.90;8.50;;;;;;;6.24;73.17;96844.69;110150;1240;71527;-67
2023/02/21 06:46:39;;;;;;;9.90;7.60;;;;;;;6.46;71.41;96843.96;110152;1241;69333;-66
2023/02/21 06:49:08;;;;;;;8.90;7.40;;;;;;;6.73;70.50;96846.83;110146;1242;69865;-67
2023/02/21 06:51:39;;;;;;;9.40;7.70;;;;;;;6.98;69.48;96848.45;110182;1241;59743;-67
2023/02/21 06:54:08;;;;;;;10.20;8.00;;;;;;;7.25;68.27;96846.25;110289;1242;59729;-68
2023/02/21 06:56:37;;;;;;;9.50;7.50;;;;;;;7.48;67.28;96847.13;110217;1240;71966;-69
2023/02/21 06:59:07;;;;;;;10.80;8.00;;;;;;;7.84;66.63;96850.48;110127;1240;69327;-67
2023/02/21 07:01:36;;;;;;;9.40;7.40;;;;;;;7.90;65.83;96857.56;110137;1242;68702;-67
2023/02/21 07:04:05;;;;;;;10.40;7.80;;;;;;;8.30;65.18;96854.72;110216;1241;59662;-68
2023/02/21 07:06:35;;;;;;;11.20;8.80;;;;;;;8.64;63.93;96859.36;110240;1242;59668;-67
2023/02/21 07:09:05;;;;;;;8.90;7.10;;;;;;;9.06;62.93;96860.22;110199;1240;71941;-67
2023/02/21 07:11:34;;;;;;;10.40;7.60;;;;;;;9.24;61.41;96862.88;110141;1245;69879;-67
2023/02/21 07:14:03;;;;;;;10.00;8.70;;;;;;;9.39;60.78;96863.06;110192;1242;69254;-68
2023/02/21 07:16:32;;;;;;;9.40;6.80;;;;;;;9.36;60.25;96864.00;110344;1242;59657;-68
2023/02/21 07:19:00;;;;;;;11.40;9.70;;;;;;;9.48;60.29;96863.23;110289;1243;59798;-68
2023/02/21 07:21:29;;;;;;;17.50;13.00;;;;;;;9.42;60.05;96858.67;110192;1240;71383;-67
2023/02/21 07:23:58;;;;;;;33.30;22.10;;;;;;;8.87;60.75;96862.02;110166;1245;68480;-68
2023/02/21 07:26:27;;;;;;;10.30;7.70;;;;;;;8.70;61.77;96863.71;110126;1241;69877;-68
2023/02/21 07:28:56;;;;;;;9.10;7.60;;;;;;;8.39;62.57;96865.70;110178;1241;59681;-68
2023/02/21 07:31:25;;;;;;;10.90;7.80;;;;;;;8.26;63.34;96865.70;110173;1242;59678;-68
2023/02/21 07:33:54;;;;;;;9.70;7.20;;;;;;;7.96;64.27;96863.19;110208;1244;71964;-67
2023/02/21 07:36:24;;;;;;;9.70;7.90;;;;;;;7.73;65.09;96858.91;110240;1243;70034;-68
2023/02/21 07:38:52;;;;;;;8.20;6.70;;;;;;;7.84;65.06;96858.52;110205;1242;69138;-67
2023/02/21 07:41:22;;;;;;;9.10;7.00;;;;;;;7.70;65.66;96859.31;110189;1242;59740;-68
2023/02/21 07:43:51;;;;;;;9.20;6.70;;;;;;;7.81;65.78;96858.70;110278;1241;59653;-68
2023/02/21 07:46:26;;;;;;;12.10;7.20;;;;;;;7.86;65.91;96860.64;109859;1243;544660;-68
2023/02/21 07:48:55;;;;;;;8.60;6.90;;;;;;;8.02;65.37;96858.42;110283;1243;68551;-68
2023/02/21 07:51:30;;;;;;;9.60;7.70;;;;;;;8.17;65.40;96862.90;110179;1241;69053;-68
2023/02/21 07:54:03;;;;;;;11.50;8.20;;;;;;;8.27;65.08;96863.58;110181;1242;59726;-68
2023/02/21 07:56:31;;;;;;;9.50;7.30;;;;;;;8.31;64.51;96866.23;110318;1241;59701;-68
2023/02/21 07:59:00;;;;;;;9.70;7.40;;;;;;;8.34;64.61;96864.09;110271;1242;72438;-68
2023/02/21 08:01:29;;;;;;;10.40;8.10;;;;;;;8.38;64.61;96860.35;110159;1242;69286;-67
2023/02/21 08:03:58;;;;;;;11.60;8.60;;;;;;;8.49;64.14;96859.98;110116;1242;68585;-68
2023/02/21 08:06:27;;;;;;;11.80;8.50;;;;;;;8.44;64.68;96853.72;110104;1245;59778;-68
2023/02/21 08:08:55;;;;;;;11.40;8.60;;;;;;;8.52;64.62;96856.77;110166;1242;59748;-68
2023/02/21 08:11:24;;;;;;;12.40;9.20;;;;;;;8.53;64.63;96850.25;110132;1241;71974;-68
2023/02/21 08:13:55;;;;;;;10.90;7.80;;;;;;;8.70;64.32;96850.53;110169;1242;69114;-68
2023/02/21 08:16:24;;;;;;;10.70;8.90;;;;;;;8.70;64.34;96851.77;110173;1240;69098;-68
2023/02/21 08:18:53;;;;;;;10.10;7.50;;;;;;;8.69;64.18;96850.80;110216;1242;59699;-69
2023/02/21 08:21:23;;;;;;;13.50;11.70;;;;;;;8.71;64.53;96848.76;110202;1242;59625;-68
2023/02/21 08:23:53;;;;;;;13.40;11.70;;;;;;;8.78;64.39;96841.69;110215;1242;71218;-68
2023/02/21 08:26:22;;;;;;;11.40;9.00;;;;;;;8.88;64.53;96834.66;110149;1242;69803;-68
2023/02/21 08:28:52;;;;;;;10.20;9.10;;;;;;;8.94;64.51;96832.65;110198;1242;69155;-68
2023/02/21 08:31:21;;;;;;;9.40;6.60;;;;;;;8.91;64.34;96828.32;110171;1242;59673;-68
2023/02/21 08:33:50;;;;;;;8.70;7.10;;;;;;;9.00;64.33;96828.70;110144;1244;59778;-68
2023/02/21 08:36:19;;;;;;;9.80;6.70;;;;;;;9.07;64.04;96831.64;110234;1242;72029;-68
2023/02/21 08:38:47;;;;;;;10.20;6.90;;;;;;;9.24;64.01;96830.70;110186;1240;69820;-68
2023/02/21 08:41:16;;;;;;;9.50;6.60;;;;;;;9.13;63.25;96825.41;110174;1243;68500;-68
2023/02/21 08:43:45;;;;;;;10.30;7.00;;;;;;;9.21;63.45;96813.89;110161;1249;59715;-68
2023/02/21 08:46:14;;;;;;;10.00;7.30;;;;;;;9.26;63.27;96810.21;110109;1245;59747;-68
2023/02/21 08:48:43;;;;;;;8.80;6.60;;;;;;;9.23;63.21;96805.22;110151;1244;71171;-68
2023/02/21 08:51:12;;;;;;;10.20;7.00;;;;;;;9.25;63.33;96802.95;110190;1242;69196;-68
2023/02/21 08:53:42;;;;;;;8.30;6.10;;;;;;;9.24;63.00;96800.41;110169;1242;68081;-68
2023/02/21 08:56:11;;;;;;;8.80;5.40;;;;;;;9.36;63.00;96792.07;110218;1241;59745;-68
2023/02/21 08:58:40;;;;;;;8.20;5.10;;;;;;;9.48;62.72;96795.59;110211;1242;59682;-68
2023/02/21 09:01:09;;;;;;;7.80;4.80;;;;;;;9.56;61.51;96795.68;110231;1242;71941;-68
2023/02/21 09:03:39;;;;;;;6.60;4.50;;;;;;;9.66;62.10;96786.54;110234;1242;69587;-68
2023/02/21 09:06:08;;;;;;;4.10;3.40;;;;;;;9.70;60.86;96787.63;110123;1245;69869;-68
2023/02/21 09:08:37;;;;;;;6.70;4.50;;;;;;;9.78;60.86;96779.15;110232;1242;59728;-68
2023/02/21 09:11:07;;;;;;;6.70;4.90;;;;;;;9.87;61.63;96772.67;110240;1241;59709;-68
2023/02/21 09:13:35;;;;;;;7.00;6.10;;;;;;;9.94;61.22;96775.09;110245;1242;72357;-68
2023/02/21 09:16:05;;;;;;;8.20;6.40;;;;;;;9.96;61.66;96775.48;110263;1240;70293;-70
2023/02/21 09:18:33;;;;;;;5.70;4.30;;;;;;;10.04;61.53;96780.38;110241;1241;69132;-68
2023/02/21 09:21:02;;;;;;;6.10;4.40;;;;;;;10.01;60.39;96780.83;110220;1242;59682;-68
2023/02/21 09:23:32;;;;;;;5.10;4.00;;;;;;;10.05;60.83;96787.23;110200;1242;59682;-68
2023/02/21 09:26:00;;;;;;;6.00;3.40;;;;;;;10.21;60.86;96791.92;110161;1242;71698;-68
2023/02/21 09:28:30;;;;;;;6.40;3.80;;;;;;;10.27;60.63;96795.26;110187;1242;69609;-68
2023/02/21 09:30:59;;;;;;;6.60;4.00;;;;;;;10.29;60.28;96798.09;110213;1242;68234;-68
2023/02/21 09:33:29;;;;;;;6.80;4.20;;;;;;;10.20;59.74;96798.92;110164;1242;60197;-68
2023/02/21 09:35:58;;;;;;;7.00;4.30;;;;;;;10.18;60.44;96797.02;110256;1245;59690;-68
2023/02/21 09:38:27;;;;;;;7.50;4.30;;;;;;;10.33;60.62;96797.21;110179;1242;71515;-68
2023/02/21 09:41:00;;;;;;;7.60;4.90;;;;;;;10.43;60.61;96793.77;110150;1242;69287;-68
2023/02/21 09:43:37;;;;;;;6.70;4.60;;;;;;;10.55;59.70;96790.86;110184;1242;69673;-68
2023/02/21 09:46:17;;;;;;;6.40;4.00;;;;;;;10.63;60.09;96787.05;110152;1243;59772;-68
2023/02/21 09:48:48;;;;;;;5.30;4.20;;;;;;;10.76;59.58;96790.87;110174;1242;59630;-68
2023/02/21 09:51:17;;;;;;;5.70;3.90;;;;;;;10.79;59.02;96789.08;110267;1241;71986;-68
2023/02/21 09:53:48;;;;;;;6.50;4.10;;;;;;;10.80;58.91;96786.90;110230;1242;69223;-68
2023/02/21 09:56:35;;;;;;;8.00;4.20;;;;;;;10.86;58.71;96779.60;110137;1242;68322;-68
2023/02/21 09:59:10;;;;;;;4.60;3.40;;;;;;;10.97;59.12;96779.02;110173;1242;59661;-68
2023/02/21 10:01:48;;;;;;;5.20;3.90;;;;;;;11.00;58.56;96771.30;110207;1241;59689;-68
2023/02/21 10:04:51;;;;;;;8.40;4.40;;;;;;;11.05;58.89;96766.69;110201;1242;71225;-68
2023/02/21 10:08:10;;;;;;;5.40;3.80;;;;;;;10.91;58.56;96763.63;110219;1242;69293;-67
2023/02/21 10:10:46;;;;;;;4.50;3.60;;;;;;;11.06;58.61;96761.90;109681;1248;68393;-68
2023/02/21 10:13:44;;;;;;;6.60;4.10;;;;;;;10.92;58.27;96769.86;110213;1242;59675;-67
2023/02/21 10:16:19;;;;;;;5.60;3.90;;;;;;;11.11;58.65;96765.07;110206;1242;59699;-68
2023/02/21 10:19:13;;;;;;;5.40;3.70;;;;;;;11.19;58.01;96769.45;110223;1241;70415;-68
2023/02/21 10:21:48;;;;;;;5.10;3.50;;;;;;;11.33;57.86;96763.95;110238;1242;69712;-68
2023/02/21 10:24:22;;;;;;;5.90;3.50;;;;;;;11.39;58.02;96762.66;110269;1242;69909;-68
2023/02/21 10:27:05;;;;;;;4.20;3.40;;;;;;;11.40;57.55;96765.75;110208;1242;59732;-68
2023/02/21 10:29:44;;;;;;;6.00;3.70;;;;;;;11.37;57.66;96770.55;110209;1242;59761;-68
2023/02/21 10:32:13;;;;;;;5.20;3.80;;;;;;;11.31;57.62;96777.83;110110;1240;72294;-68
2023/02/21 10:34:46;;;;;;;5.90;3.30;;;;;;;11.18;57.78;96777.88;110167;1240;69156;-68
2023/02/21 10:37:49;;;;;;;3.70;2.80;;;;;;;10.99;57.84;96770.84;110185;1242;69726;-69
2023/02/21 10:40:27;;;;;;;4.20;2.80;;;;;;;10.95;58.28;96774.80;110166;1242;59678;-68
2023/02/21 10:43:04;;;;;;;3.70;2.70;;;;;;;10.77;58.40;96778.28;110247;1242;59660;-68
2023/02/21 10:45:39;;;;;;;3.70;2.60;;;;;;;10.68;58.86;96778.69;110259;1241;71946;-69
2023/02/21 10:48:10;;;;;;;5.00;2.70;;;;;;;10.54;59.42;96778.25;110235;1242;69283;-69
2023/02/21 10:50:53;;;;;;;4.50;2.50;;;;;;;10.47;59.74;96775.34;110200;1240;68552;-69
2023/02/21 10:53:31;;;;;;;3.20;2.60;;;;;;;10.33;60.04;96780.90;110123;1246;59751;-68
2023/02/21 10:56:17;;;;;;;4.40;2.80;;;;;;;10.31;60.18;96769.91;110201;1242;59685;-68
2023/02/21 10:58:56;;;;;;;4.10;2.80;;;;;;;10.22;60.51;96765.55;110232;1243;72039;-68
2023/02/21 11:01:25;;;;;;;3.90;2.70;;;;;;;10.13;60.62;96760.68;110232;1240;69106;-68
2023/02/21 11:03:58;;;;;;;3.60;2.50;;;;;;;10.10;60.34;96760.89;110199;1242;69350;-68
2023/02/21 11:06:29;;;;;;;4.50;2.80;;;;;;;10.11;60.72;96759.29;110249;1241;59744;-69
2023/02/21 11:08:58;;;;;;;3.80;2.80;;;;;;;10.02;60.69;96755.15;110188;1242;59679;-68
2023/02/21 11:11:39;;;;;;;3.90;2.60;;;;;;;10.02;60.79;96761.60;110220;1242;71974;-69
2023/02/21 11:14:19;;;;;;;4.40;2.90;;;;;;;9.97;60.72;96764.42;110244;1247;68275;-68
2023/02/21 11:17:13;;;;;;;4.50;2.80;;;;;;;9.94;60.90;96760.83;110223;1241;69065;-68
2023/02/21 11:19:51;;;;;;;3.70;2.60;;;;;;;9.91;60.77;96763.86;110136;1242;59703;-68
2023/02/21 11:22:35;;;;;;;4.20;2.80;;;;;;;9.92;61.03;96762.89;110231;1242;59665;-68
2023/02/21 11:25:27;;;;;;;3.60;2.80;;;;;;;9.88;60.83;96762.34;110205;1242;71340;-69
2023/02/21 11:28:06;;;;;;;4.50;2.80;;;;;;;9.86;61.15;96758.47;110151;1242;69810;-68
2023/02/21 11:30:37;;;;;;;3.80;2.50;;;;;;;9.85;61.45;96758.42;110193;1242;69083;-69
2023/02/21 11:33:08;;;;;;;4.90;2.60;;;;;;;9.83;61.49;96753.70;110159;1242;59697;-68
2023/02/21 11:35:47;;;;;;;5.10;2.90;;;;;;;9.82;61.65;96750.48;110240;1242;59705;-68
2023/02/21 11:38:39;;;;;;;5.40;2.90;;;;;;;9.85;61.72;96750.23;110209;1242;70802;-68
2023/02/21 11:41:29;;;;;;;5.30;3.10;;;;;;;9.82;61.84;96749.77;110204;1240;69109;-68
2023/02/21 11:43:58;;;;;;;4.30;3.00;;;;;;;9.87;61.85;96745.86;110166;1244;69303;-68
2023/02/21 11:46:30;;;;;;;4.50;3.00;;;;;;;9.93;61.95;96742.63;110133;1242;59716;-68
2023/02/21 11:49:17;;;;;;;4.70;2.90;;;;;;;9.96;61.81;96736.84;110200;1243;59692;-68
2023/02/21 11:51:52;;;;;;;5.20;3.10;;;;;;;10.04;61.79;96734.41;110198;1241;71374;-69
2023/02/21 11:54:25;;;;;;;4.00;2.80;;;;;;;10.10;61.87;96733.89;110218;1243;69086;-69
2023/02/21 11:57:05;;;;;;;2.90;2.30;;;;;;;10.19;61.35;96735.27;110131;1242;69238;-69
2023/02/21 11:59:52;;;;;;;3.80;2.70;;;;;;;10.27;61.37;96735.88;110156;1241;59743;-68
2023/02/21 12:02:28;;;;;;;4.00;3.00;;;;;;;10.34;61.19;96737.27;110150;1242;59647;-70
2023/02/21 12:05:13;;;;;;;5.80;3.20;;;;;;;10.34;61.07;96743.87;110198;1242;71455;-69
2023/02/21 12:07:42;;;;;;;4.70;3.50;;;;;;;10.30;61.13;96739.14;110180;1242;69418;-70
2023/02/21 12:10:22;;;;;;;4.80;3.30;;;;;;;10.34;60.99;96743.65;110238;1242;69878;-67
2023/02/21 12:13:12;;;;;;;4.20;2.80;;;;;;;10.29;60.93;96740.91;110236;1242;60036;-70
2023/02/21 12:15:43;;;;;;;3.90;3.00;;;;;;;10.31;61.25;96747.90;110223;1242;59692;-67
2023/02/21 12:18:15;;;;;;;4.70;2.80;;;;;;;10.34;61.39;96745.42;110155;1243;70196;-68
2023/02/21 12:20:58;;;;;;;4.70;3.10;;;;;;;10.31;61.26;96744.78;110218;1242;68827;-68
2023/02/21 12:23:43;;;;;;;4.20;2.90;;;;;;;10.29;61.35;96739.55;110217;1242;69559;-68
2023/02/21 12:26:33;;;;;;;5.20;3.10;;;;;;;10.29;61.54;96736.41;110222;1247;59701;-68
2023/02/21 12:29:43;;;;;;;4.30;3.60;;;;;;;10.34;61.54;96736.02;110268;1242;59732;-68
2023/02/21 12:32:49;;;;;;;4.50;2.90;;;;;;;10.37;61.66;96735.76;110145;1242;71400;-68
2023/02/21 12:35:47;;;;;;;4.80;2.80;;;;;;;10.36;61.83;96740.55;110058;1242;68744;-68
2023/02/21 12:38:41;;;;;;;4.30;3.30;;;;;;;10.35;61.70;96739.55;110166;1242;69623;-68
2023/02/21 12:41:30;;;;;;;5.00;3.00;;;;;;;10.33;61.55;96735.91;110173;1242;59646;-68
2023/02/21 12:44:50;;;;;;;3.90;2.90;;;;;;;10.32;61.45;96732.34;110153;1242;60296;-68
2023/02/21 12:47:42;;;;;;;4.50;2.90;;;;;;;10.30;61.71;96736.50;109901;1240;71465;-68
2023/02/21 12:50:16;;;;;;;5.40;3.10;;;;;;;10.27;61.99;96737.84;110152;1242;68439;-69
2023/02/21 12:53:03;;;;;;;6.20;3.00;;;;;;;10.27;61.97;96738.30;110172;1240;69265;-67
2023/02/21 12:55:37;;;;;;;4.80;3.00;;;;;;;10.28;62.04;96736.67;110187;1242;59693;-68
2023/02/21 12:58:35;;;;;;;4.50;2.90;;;;;;;10.31;62.18;96730.38;110197;1242;59683;-68
2023/02/21 13:01:26;;;;;;;5.70;3.50;;;;;;;10.32;62.22;96736.15;110198;1243;71160;-68
2023/02/21 13:04:16;;;;;;;9.10;6.50;;;;;;;10.33;62.29;96740.59;110201;1242;69579;-69
2023/02/21 13:06:54;;;;;;;7.00;6.20;;;;;;;10.35;62.51;96740.13;110187;1247;69238;-68
2023/02/21 13:09:33;;;;;;;4.40;3.20;;;;;;;10.34;62.39;96739.27;110244;1242;59792;-68
2023/02/21 13:12:02;;;;;;;3.70;3.00;;;;;;;10.32;62.28;96738.45;110215;1240;59731;-68
2023/02/21 13:14:42;;;;;;;4.10;2.90;;;;;;;10.37;62.46;96736.12;110194;1249;70788;-69
2023/02/21 13:17:14;;;;;;;3.90;2.60;;;;;;;10.42;62.49;96739.01;110200;1240;69798;-69
2023/02/21 13:19:54;;;;;;;3.70;3.00;;;;;;;10.47;62.40;96735.63;110239;1242;69606;-68
2023/02/21 13:26:15;;;;;;;4.40;3.40;;;;;;;10.48;62.65;96737.83;110173;1250;59678;-67
2023/02/21 13:28:45;;;;;;;5.30;3.10;;;;;;;10.51;62.24;96737.94;110154;1243;70926;-67
2023/02/21 13:31:36;;;;;;;4.00;2.90;;;;;;;10.52;62.20;96733.31;110201;1241;69038;-68
2023/02/21 13:34:16;;;;;;;4.00;2.70;;;;;;;10.53;62.72;96737.88;110230;1242;68371;-68
2023/02/21 13:36:46;;;;;;;4.00;3.10;;;;;;;10.54;62.47;96740.27;110187;1242;59687;-68
2023/02/21 13:39:35;;;;;;;4.30;2.70;;;;;;;10.55;62.50;96746.41;110194;1241;59607;-68
2023/02/21 13:42:16;;;;;;;4.50;3.00;;;;;;;10.57;62.59;96751.45;110187;1247;69439;-68
2023/02/21 13:44:50;;;;;;;5.20;3.10;;;;;;;10.59;62.71;96750.63;110199;1242;69807;-67
2023/02/21 13:47:21;;;;;;;3.70;2.80;;;;;;;10.64;62.71;96753.54;110170;1242;69658;-68
2023/02/21 13:49:55;;;;;;;3.60;2.80;;;;;;;10.69;63.05;96749.99;110169;1241;59687;-68
2023/02/21 13:52:50;;;;;;;3.70;2.80;;;;;;;10.80;62.87;96748.55;110168;1242;59690;-68
2023/02/21 13:55:22;;;;;;;3.50;2.90;;;;;;;10.92;63.08;96743.35;110224;1242;71815;-69
2023/02/21 13:58:11;;;;;;;4.70;3.20;;;;;;;11.01;63.04;96741.37;110216;1242;68689;-69
2023/02/21 14:00:40;;;;;;;4.70;3.00;;;;;;;11.09;62.97;96740.71;110215;1242;69854;-68
2023/02/21 14:03:08;;;;;;;4.40;3.20;;;;;;;11.11;62.89;96747.16;110214;1242;59760;-68
2023/02/21 14:05:51;;;;;;;6.10;3.40;;;;;;;11.15;62.09;96750.41;110269;1242;59678;-68
2023/02/21 14:08:28;;;;;;;5.90;4.10;;;;;;;11.27;61.83;96748.35;110224;1242;71733;-68
2023/02/21 14:10:57;;;;;;;8.10;3.50;;;;;;;11.39;61.57;96748.92;110232;1243;69163;-68
2023/02/21 14:13:40;;;;;;;5.50;3.40;;;;;;;11.49;61.37;96758.35;110201;1242;69044;-68
2023/02/21 14:16:11;;;;;;;6.00;3.30;;;;;;;11.67;61.82;96755.52;110190;1242;59762;-67
2023/02/21 14:18:46;;;;;;;4.60;3.20;;;;;;;11.87;61.56;96753.43;110241;1243;59608;-68
2023/02/21 14:21:21;;;;;;;3.60;2.70;;;;;;;12.07;61.03;96754.65;110211;1241;71348;-69
2023/02/21 14:24:01;;;;;;;5.00;3.90;;;;;;;12.22;59.97;96756.96;110208;1243;68355;-68
2023/02/21 14:26:50;;;;;;;5.00;3.30;;;;;;;12.41;59.59;96756.01;110193;1242;69169;-68